sensor_id;sensor_type;location;lat;lon;timestamp;temperature;humidity
69082;DHT22;56184;51.986;5.760;2022-07-19T00:00:12;21.50;59.40
69082;DHT22;56184;51.986;5.760;2022-07-19T00:02:40;21.50;59.50
69082;DHT22;56184;51.986;5.760;2022-07-19T00:05:07;21.40;61.20
69082;DHT22;56184;51.986;5.760;2022-07-19T00:07:33;21.40;61.10
69082;DHT22;56184;51.986;5.760;2022-07-19T00:09:58;21.30;62.60
69082;DHT22;56184;51.986;5.760;2022-07-19T00:12:24;21.20;63.80
69082;DHT22;56184;51.986;5.760;2022-07-19T00:14:50;21.10;64.10
69082;DHT22;56184;51.986;5.760;2022-07-19T00:17:15;21.00;64.00
69082;DHT22;56184;51.986;5.760;2022-07-19T00:19:41;21.00;62.80
69082;DHT22;56184;51.986;5.760;2022-07-19T00:22:07;21.00;66.50
69082;DHT22;56184;51.986;5.760;2022-07-19T00:24:32;20.90;65.00
69082;DHT22;56184;51.986;5.760;2022-07-19T00:26:58;20.90;63.20
69082;DHT22;56184;51.986;5.760;2022-07-19T00:29:24;20.80;64.10
69082;DHT22;56184;51.986;5.760;2022-07-19T00:31:49;20.80;66.70
69082;DHT22;56184;51.986;5.760;2022-07-19T00:34:15;20.70;65.90
69082;DHT22;56184;51.986;5.760;2022-07-19T00:36:41;20.60;65.40
69082;DHT22;56184;51.986;5.760;2022-07-19T00:39:06;20.60;65.20
69082;DHT22;56184;51.986;5.760;2022-07-19T00:41:48;20.60;65.70
69082;DHT22;56184;51.986;5.760;2022-07-19T00:44:14;20.50;66.90
69082;DHT22;56184;51.986;5.760;2022-07-19T00:46:40;20.50;65.20
69082;DHT22;56184;51.986;5.760;2022-07-19T00:49:05;20.50;66.10
69082;DHT22;56184;51.986;5.760;2022-07-19T00:51:34;20.40;67.00
69082;DHT22;56184;51.986;5.760;2022-07-19T00:54:02;20.30;69.30
69082;DHT22;56184;51.986;5.760;2022-07-19T00:56:30;20.30;69.70
69082;DHT22;56184;51.986;5.760;2022-07-19T00:58:57;20.20;66.90
69082;DHT22;56184;51.986;5.760;2022-07-19T01:01:24;20.20;70.20
69082;DHT22;56184;51.986;5.760;2022-07-19T01:03:51;20.10;68.70
69082;DHT22;56184;51.986;5.760;2022-07-19T01:06:17;20.10;68.80
69082;DHT22;56184;51.986;5.760;2022-07-19T01:08:42;20.10;70.10
69082;DHT22;56184;51.986;5.760;2022-07-19T01:11:08;20.00;70.10
69082;DHT22;56184;51.986;5.760;2022-07-19T01:13:34;20.00;69.20
69082;DHT22;56184;51.986;5.760;2022-07-19T01:16:00;19.90;69.40
69082;DHT22;56184;51.986;5.760;2022-07-19T01:18:26;19.90;69.30
69082;DHT22;56184;51.986;5.760;2022-07-19T01:20:52;19.90;69.30
69082;DHT22;56184;51.986;5.760;2022-07-19T01:23:17;19.80;70.20
69082;DHT22;56184;51.986;5.760;2022-07-19T01:25:43;19.80;71.00
69082;DHT22;56184;51.986;5.760;2022-07-19T01:28:09;19.70;70.20
69082;DHT22;56184;51.986;5.760;2022-07-19T01:30:35;19.70;70.40
69082;DHT22;56184;51.986;5.760;2022-07-19T01:33:01;19.60;70.70
69082;DHT22;56184;51.986;5.760;2022-07-19T01:35:27;19.60;70.10
69082;DHT22;56184;51.986;5.760;2022-07-19T01:37:55;19.60;72.10
69082;DHT22;56184;51.986;5.760;2022-07-19T01:40:21;19.40;69.90
69082;DHT22;56184;51.986;5.760;2022-07-19T01:42:48;19.50;70.60
69082;DHT22;56184;51.986;5.760;2022-07-19T01:45:14;19.40;71.30
69082;DHT22;56184;51.986;5.760;2022-07-19T01:47:41;19.40;71.00
69082;DHT22;56184;51.986;5.760;2022-07-19T01:50:08;19.40;69.60
69082;DHT22;56184;51.986;5.760;2022-07-19T01:52:34;19.30;72.80
69082;DHT22;56184;51.986;5.760;2022-07-19T01:55:00;19.30;71.30
69082;DHT22;56184;51.986;5.760;2022-07-19T01:57:26;19.30;72.00
69082;DHT22;56184;51.986;5.760;2022-07-19T01:59:54;19.20;74.10
69082;DHT22;56184;51.986;5.760;2022-07-19T02:02:20;19.20;73.10
69082;DHT22;56184;51.986;5.760;2022-07-19T02:04:46;19.10;73.80
69082;DHT22;56184;51.986;5.760;2022-07-19T02:07:11;19.10;74.20
69082;DHT22;56184;51.986;5.760;2022-07-19T02:09:37;19.00;71.60
69082;DHT22;56184;51.986;5.760;2022-07-19T02:12:03;19.00;74.40
69082;DHT22;56184;51.986;5.760;2022-07-19T02:14:28;19.00;73.50
69082;DHT22;56184;51.986;5.760;2022-07-19T02:16:54;19.00;73.10
69082;DHT22;56184;51.986;5.760;2022-07-19T02:19:22;18.90;73.70
69082;DHT22;56184;51.986;5.760;2022-07-19T02:21:48;18.90;73.10
69082;DHT22;56184;51.986;5.760;2022-07-19T02:24:14;18.80;73.20
69082;DHT22;56184;51.986;5.760;2022-07-19T02:26:39;18.80;72.50
69082;DHT22;56184;51.986;5.760;2022-07-19T02:29:06;18.80;75.40
69082;DHT22;56184;51.986;5.760;2022-07-19T02:31:32;18.70;74.00
69082;DHT22;56184;51.986;5.760;2022-07-19T02:33:57;18.70;74.30
69082;DHT22;56184;51.986;5.760;2022-07-19T02:36:28;18.70;73.70
69082;DHT22;56184;51.986;5.760;2022-07-19T02:38:57;18.60;74.30
69082;DHT22;56184;51.986;5.760;2022-07-19T02:41:23;18.60;75.60
69082;DHT22;56184;51.986;5.760;2022-07-19T02:43:49;18.50;75.00
69082;DHT22;56184;51.986;5.760;2022-07-19T02:46:14;18.50;75.30
69082;DHT22;56184;51.986;5.760;2022-07-19T02:48:40;18.50;75.70
69082;DHT22;56184;51.986;5.760;2022-07-19T02:51:10;18.40;75.90
69082;DHT22;56184;51.986;5.760;2022-07-19T02:53:36;18.40;75.40
69082;DHT22;56184;51.986;5.760;2022-07-19T02:56:02;18.40;77.10
69082;DHT22;56184;51.986;5.760;2022-07-19T02:58:27;18.40;76.30
69082;DHT22;56184;51.986;5.760;2022-07-19T03:00:53;18.30;75.90
69082;DHT22;56184;51.986;5.760;2022-07-19T03:03:18;18.30;77.00
69082;DHT22;56184;51.986;5.760;2022-07-19T03:06:03;18.20;75.80
69082;DHT22;56184;51.986;5.760;2022-07-19T03:08:28;18.20;77.30
69082;DHT22;56184;51.986;5.760;2022-07-19T03:10:54;18.20;76.20
69082;DHT22;56184;51.986;5.760;2022-07-19T03:13:19;18.20;78.00
69082;DHT22;56184;51.986;5.760;2022-07-19T03:15:45;18.10;76.20
69082;DHT22;56184;51.986;5.760;2022-07-19T03:18:10;18.10;76.00
69082;DHT22;56184;51.986;5.760;2022-07-19T03:20:36;18.10;76.40
69082;DHT22;56184;51.986;5.760;2022-07-19T03:23:02;18.00;76.50
69082;DHT22;56184;51.986;5.760;2022-07-19T03:25:27;18.00;75.90
69082;DHT22;56184;51.986;5.760;2022-07-19T03:27:53;18.00;76.80
69082;DHT22;56184;51.986;5.760;2022-07-19T03:30:19;17.90;76.10
69082;DHT22;56184;51.986;5.760;2022-07-19T03:32:45;17.90;78.40
69082;DHT22;56184;51.986;5.760;2022-07-19T03:35:10;17.90;78.10
69082;DHT22;56184;51.986;5.760;2022-07-19T03:37:36;17.90;77.30
69082;DHT22;56184;51.986;5.760;2022-07-19T03:40:02;17.90;77.20
69082;DHT22;56184;51.986;5.760;2022-07-19T03:42:28;17.90;76.90
69082;DHT22;56184;51.986;5.760;2022-07-19T03:44:53;17.80;78.90
69082;DHT22;56184;51.986;5.760;2022-07-19T03:47:19;17.80;78.20
69082;DHT22;56184;51.986;5.760;2022-07-19T03:49:44;17.80;76.60
69082;DHT22;56184;51.986;5.760;2022-07-19T03:52:10;17.80;78.00
69082;DHT22;56184;51.986;5.760;2022-07-19T03:54:36;17.80;78.30
69082;DHT22;56184;51.986;5.760;2022-07-19T03:57:02;17.80;78.80
69082;DHT22;56184;51.986;5.760;2022-07-19T03:59:28;17.80;78.00
69082;DHT22;56184;51.986;5.760;2022-07-19T04:01:53;17.80;78.90
69082;DHT22;56184;51.986;5.760;2022-07-19T04:04:20;17.80;78.20
69082;DHT22;56184;51.986;5.760;2022-07-19T04:06:45;17.80;79.50
69082;DHT22;56184;51.986;5.760;2022-07-19T04:09:18;17.80;78.80
69082;DHT22;56184;51.986;5.760;2022-07-19T04:11:44;17.70;79.90
69082;DHT22;56184;51.986;5.760;2022-07-19T04:14:09;17.70;78.60
69082;DHT22;56184;51.986;5.760;2022-07-19T04:16:35;17.70;79.40
69082;DHT22;56184;51.986;5.760;2022-07-19T04:19:01;17.70;77.10
69082;DHT22;56184;51.986;5.760;2022-07-19T04:21:26;17.70;79.60
69082;DHT22;56184;51.986;5.760;2022-07-19T04:23:52;17.70;79.60
69082;DHT22;56184;51.986;5.760;2022-07-19T04:26:18;17.80;79.60
69082;DHT22;56184;51.986;5.760;2022-07-19T04:28:43;17.80;80.10
69082;DHT22;56184;51.986;5.760;2022-07-19T04:31:09;17.80;81.30
69082;DHT22;56184;51.986;5.760;2022-07-19T04:33:34;17.70;77.90
69082;DHT22;56184;51.986;5.760;2022-07-19T04:36:00;17.70;81.20
69082;DHT22;56184;51.986;5.760;2022-07-19T04:38:25;17.80;81.00
69082;DHT22;56184;51.986;5.760;2022-07-19T04:40:51;17.80;81.00
69082;DHT22;56184;51.986;5.760;2022-07-19T04:43:17;17.80;81.70
69082;DHT22;56184;51.986;5.760;2022-07-19T04:45:42;17.80;81.60
69082;DHT22;56184;51.986;5.760;2022-07-19T04:48:10;17.80;80.60
69082;DHT22;56184;51.986;5.760;2022-07-19T04:50:36;17.90;81.40
69082;DHT22;56184;51.986;5.760;2022-07-19T04:53:02;17.90;81.90
69082;DHT22;56184;51.986;5.760;2022-07-19T04:55:27;17.90;82.20
69082;DHT22;56184;51.986;5.760;2022-07-19T04:57:53;17.90;82.20
69082;DHT22;56184;51.986;5.760;2022-07-19T05:00:19;17.90;81.80
69082;DHT22;56184;51.986;5.760;2022-07-19T05:02:44;18.00;82.20
69082;DHT22;56184;51.986;5.760;2022-07-19T05:05:10;18.00;82.10
69082;DHT22;56184;51.986;5.760;2022-07-19T05:07:37;18.00;81.20
69082;DHT22;56184;51.986;5.760;2022-07-19T05:10:03;18.10;82.40
69082;DHT22;56184;51.986;5.760;2022-07-19T05:12:30;18.10;82.90
69082;DHT22;56184;51.986;5.760;2022-07-19T05:14:55;18.10;82.00
69082;DHT22;56184;51.986;5.760;2022-07-19T05:17:22;18.20;82.80
69082;DHT22;56184;51.986;5.760;2022-07-19T05:19:48;18.20;82.90
69082;DHT22;56184;51.986;5.760;2022-07-19T05:22:13;18.30;82.00
69082;DHT22;56184;51.986;5.760;2022-07-19T05:24:39;18.30;83.00
69082;DHT22;56184;51.986;5.760;2022-07-19T05:27:04;18.40;82.60
69082;DHT22;56184;51.986;5.760;2022-07-19T05:29:30;18.40;82.60
69082;DHT22;56184;51.986;5.760;2022-07-19T05:31:55;18.50;82.10
69082;DHT22;56184;51.986;5.760;2022-07-19T05:34:21;18.60;81.80
69082;DHT22;56184;51.986;5.760;2022-07-19T05:36:47;18.70;82.40
69082;DHT22;56184;51.986;5.760;2022-07-19T05:39:12;18.80;82.20
69082;DHT22;56184;51.986;5.760;2022-07-19T05:41:38;18.90;82.10
69082;DHT22;56184;51.986;5.760;2022-07-19T05:44:04;19.00;82.40
69082;DHT22;56184;51.986;5.760;2022-07-19T05:46:29;19.10;80.90
69082;DHT22;56184;51.986;5.760;2022-07-19T05:48:55;19.20;80.90
69082;DHT22;56184;51.986;5.760;2022-07-19T05:51:20;19.30;81.80
69082;DHT22;56184;51.986;5.760;2022-07-19T05:53:46;19.40;81.70
69082;DHT22;56184;51.986;5.760;2022-07-19T05:56:11;19.50;81.00
69082;DHT22;56184;51.986;5.760;2022-07-19T05:58:37;19.70;80.80
69082;DHT22;56184;51.986;5.760;2022-07-19T06:01:04;19.80;81.70
69082;DHT22;56184;51.986;5.760;2022-07-19T06:03:53;19.90;79.90
69082;DHT22;56184;51.986;5.760;2022-07-19T06:06:19;20.10;80.80
69082;DHT22;56184;51.986;5.760;2022-07-19T06:08:46;20.30;78.30
69082;DHT22;56184;51.986;5.760;2022-07-19T06:11:12;20.40;80.00
69082;DHT22;56184;51.986;5.760;2022-07-19T06:13:38;20.60;80.40
69082;DHT22;56184;51.986;5.760;2022-07-19T06:16:05;20.80;81.00
69082;DHT22;56184;51.986;5.760;2022-07-19T06:18:31;21.00;80.20
69082;DHT22;56184;51.986;5.760;2022-07-19T06:21:04;21.10;79.60
69082;DHT22;56184;51.986;5.760;2022-07-19T06:23:30;21.40;78.50
69082;DHT22;56184;51.986;5.760;2022-07-19T06:25:56;21.50;76.40
69082;DHT22;56184;51.986;5.760;2022-07-19T06:28:22;21.60;74.80
69082;DHT22;56184;51.986;5.760;2022-07-19T06:30:47;21.70;74.70
69082;DHT22;56184;51.986;5.760;2022-07-19T06:33:13;21.90;71.90
69082;DHT22;56184;51.986;5.760;2022-07-19T06:35:39;22.10;67.80
69082;DHT22;56184;51.986;5.760;2022-07-19T06:38:05;22.20;63.60
69082;DHT22;56184;51.986;5.760;2022-07-19T06:40:31;22.40;68.20
69082;DHT22;56184;51.986;5.760;2022-07-19T06:42:57;22.50;67.90
69082;DHT22;56184;51.986;5.760;2022-07-19T06:45:22;22.60;68.00
69082;DHT22;56184;51.986;5.760;2022-07-19T06:47:48;22.70;65.30
69082;DHT22;56184;51.986;5.760;2022-07-19T06:50:16;22.80;65.90
69082;DHT22;56184;51.986;5.760;2022-07-19T06:52:41;22.90;63.90
69082;DHT22;56184;51.986;5.760;2022-07-19T06:55:07;23.10;63.20
69082;DHT22;56184;51.986;5.760;2022-07-19T06:57:33;23.20;62.80
69082;DHT22;56184;51.986;5.760;2022-07-19T06:59:59;23.30;60.20
69082;DHT22;56184;51.986;5.760;2022-07-19T07:02:24;23.40;60.20
69082;DHT22;56184;51.986;5.760;2022-07-19T07:04:50;23.50;59.00
69082;DHT22;56184;51.986;5.760;2022-07-19T07:07:15;23.60;59.30
69082;DHT22;56184;51.986;5.760;2022-07-19T07:09:41;23.70;58.70
69082;DHT22;56184;51.986;5.760;2022-07-19T07:12:07;23.80;57.80
69082;DHT22;56184;51.986;5.760;2022-07-19T07:14:34;23.80;56.30
69082;DHT22;56184;51.986;5.760;2022-07-19T07:16:59;23.90;56.20
69082;DHT22;56184;51.986;5.760;2022-07-19T07:19:25;24.10;56.40
69082;DHT22;56184;51.986;5.760;2022-07-19T07:21:50;24.20;55.80
69082;DHT22;56184;51.986;5.760;2022-07-19T07:24:17;24.30;55.90
69082;DHT22;56184;51.986;5.760;2022-07-19T07:26:43;24.40;55.40
69082;DHT22;56184;51.986;5.760;2022-07-19T07:29:08;24.40;55.00
69082;DHT22;56184;51.986;5.760;2022-07-19T07:31:34;24.50;54.50
69082;DHT22;56184;51.986;5.760;2022-07-19T07:33:59;24.60;57.30
69082;DHT22;56184;51.986;5.760;2022-07-19T07:36:25;24.70;55.70
69082;DHT22;56184;51.986;5.760;2022-07-19T07:38:50;24.80;53.30
69082;DHT22;56184;51.986;5.760;2022-07-19T07:41:16;24.80;53.90
69082;DHT22;56184;51.986;5.760;2022-07-19T07:43:42;24.90;54.00
69082;DHT22;56184;51.986;5.760;2022-07-19T07:46:07;25.00;52.70
69082;DHT22;56184;51.986;5.760;2022-07-19T07:48:33;25.20;51.90
69082;DHT22;56184;51.986;5.760;2022-07-19T07:50:58;25.30;51.90
69082;DHT22;56184;51.986;5.760;2022-07-19T07:53:24;25.40;52.00
69082;DHT22;56184;51.986;5.760;2022-07-19T07:55:50;25.40;51.90
69082;DHT22;56184;51.986;5.760;2022-07-19T07:58:16;25.30;52.50
69082;DHT22;56184;51.986;5.760;2022-07-19T08:00:41;25.40;51.70
69082;DHT22;56184;51.986;5.760;2022-07-19T08:03:07;25.40;51.70
69082;DHT22;56184;51.986;5.760;2022-07-19T08:05:33;25.40;51.70
69082;DHT22;56184;51.986;5.760;2022-07-19T08:07:59;25.50;52.10
69082;DHT22;56184;51.986;5.760;2022-07-19T08:10:27;25.50;52.30
69082;DHT22;56184;51.986;5.760;2022-07-19T08:12:54;25.60;52.10
69082;DHT22;56184;51.986;5.760;2022-07-19T08:15:20;25.60;50.90
69082;DHT22;56184;51.986;5.760;2022-07-19T08:17:46;25.70;49.00
69082;DHT22;56184;51.986;5.760;2022-07-19T08:20:12;25.90;50.00
69082;DHT22;56184;51.986;5.760;2022-07-19T08:22:38;26.00;49.20
69082;DHT22;56184;51.986;5.760;2022-07-19T08:25:04;26.10;49.90
69082;DHT22;56184;51.986;5.760;2022-07-19T08:27:30;26.20;50.10
69082;DHT22;56184;51.986;5.760;2022-07-19T08:29:55;26.20;49.80
69082;DHT22;56184;51.986;5.760;2022-07-19T08:32:21;26.20;49.50
69082;DHT22;56184;51.986;5.760;2022-07-19T08:34:46;26.30;49.20
69082;DHT22;56184;51.986;5.760;2022-07-19T08:37:18;26.20;49.50
69082;DHT22;56184;51.986;5.760;2022-07-19T08:39:44;26.30;48.10
69082;DHT22;56184;51.986;5.760;2022-07-19T08:42:10;26.40;48.60
69082;DHT22;56184;51.986;5.760;2022-07-19T08:44:36;26.40;49.00
69082;DHT22;56184;51.986;5.760;2022-07-19T08:47:05;26.50;49.10
69082;DHT22;56184;51.986;5.760;2022-07-19T08:49:31;26.60;48.70
69082;DHT22;56184;51.986;5.760;2022-07-19T08:51:56;26.60;47.60
69082;DHT22;56184;51.986;5.760;2022-07-19T08:54:23;26.70;47.30
69082;DHT22;56184;51.986;5.760;2022-07-19T08:56:50;26.90;46.50
69082;DHT22;56184;51.986;5.760;2022-07-19T08:59:35;27.20;46.80
69082;DHT22;56184;51.986;5.760;2022-07-19T09:02:00;27.50;44.10
69082;DHT22;56184;51.986;5.760;2022-07-19T09:04:26;27.70;44.30
69082;DHT22;56184;51.986;5.760;2022-07-19T09:06:56;27.90;44.40
69082;DHT22;56184;51.986;5.760;2022-07-19T09:09:27;28.00;45.00
69082;DHT22;56184;51.986;5.760;2022-07-19T09:11:54;28.00;44.00
69082;DHT22;56184;51.986;5.760;2022-07-19T09:16:51;28.30;42.80
69082;DHT22;56184;51.986;5.760;2022-07-19T09:19:17;28.50;42.30
69082;DHT22;56184;51.986;5.760;2022-07-19T09:22:10;28.50;43.30
69082;DHT22;56184;51.986;5.760;2022-07-19T09:24:48;28.60;42.70
69082;DHT22;56184;51.986;5.760;2022-07-19T09:27:22;28.70;43.10
69082;DHT22;56184;51.986;5.760;2022-07-19T09:29:56;28.90;42.10
69082;DHT22;56184;51.986;5.760;2022-07-19T09:32:24;28.90;43.20
69082;DHT22;56184;51.986;5.760;2022-07-19T09:37:22;29.20;43.10
69082;DHT22;56184;51.986;5.760;2022-07-19T09:39:51;29.30;42.00
69082;DHT22;56184;51.986;5.760;2022-07-19T09:42:27;29.40;41.70
69082;DHT22;56184;51.986;5.760;2022-07-19T09:45:02;29.50;41.90
69082;DHT22;56184;51.986;5.760;2022-07-19T09:47:36;29.60;41.50
69082;DHT22;56184;51.986;5.760;2022-07-19T09:50:06;29.70;41.30
69082;DHT22;56184;51.986;5.760;2022-07-19T09:52:33;29.80;41.80
69082;DHT22;56184;51.986;5.760;2022-07-19T09:55:02;29.80;41.70
69082;DHT22;56184;51.986;5.760;2022-07-19T09:57:34;29.90;41.30
69082;DHT22;56184;51.986;5.760;2022-07-19T10:00:01;30.10;42.10
69082;DHT22;56184;51.986;5.760;2022-07-19T10:02:29;30.30;40.60
69082;DHT22;56184;51.986;5.760;2022-07-19T10:04:56;30.50;41.30
69082;DHT22;56184;51.986;5.760;2022-07-19T10:07:23;30.60;40.40
69082;DHT22;56184;51.986;5.760;2022-07-19T10:09:50;30.80;40.90
69082;DHT22;56184;51.986;5.760;2022-07-19T10:12:16;30.90;40.90
69082;DHT22;56184;51.986;5.760;2022-07-19T10:14:42;31.00;40.40
69082;DHT22;56184;51.986;5.760;2022-07-19T10:17:30;31.00;40.10
69082;DHT22;56184;51.986;5.760;2022-07-19T10:19:58;31.10;39.10
69082;DHT22;56184;51.986;5.760;2022-07-19T10:22:26;31.30;38.70
69082;DHT22;56184;51.986;5.760;2022-07-19T10:24:55;31.50;40.20
69082;DHT22;56184;51.986;5.760;2022-07-19T10:29:50;32.00;38.80
69082;DHT22;56184;51.986;5.760;2022-07-19T10:32:16;32.20;37.60
69082;DHT22;56184;51.986;5.760;2022-07-19T10:34:44;32.40;37.70
69082;DHT22;56184;51.986;5.760;2022-07-19T10:37:12;32.60;36.10
69082;DHT22;56184;51.986;5.760;2022-07-19T10:39:39;32.70;36.50
69082;DHT22;56184;51.986;5.760;2022-07-19T10:47:57;33.40;35.90
69082;DHT22;56184;51.986;5.760;2022-07-19T10:50:20;33.80;35.40
69082;DHT22;56184;51.986;5.760;2022-07-19T10:52:47;34.30;33.20
69082;DHT22;56184;51.986;5.760;2022-07-19T10:57:47;35.00;33.20
69082;DHT22;56184;51.986;5.760;2022-07-19T11:00:30;35.40;33.20
69082;DHT22;56184;51.986;5.760;2022-07-19T11:05:55;36.30;29.50
69082;DHT22;56184;51.986;5.760;2022-07-19T11:08:35;36.70;28.60
69082;DHT22;56184;51.986;5.760;2022-07-19T11:11:24;37.00;29.30
69082;DHT22;56184;51.986;5.760;2022-07-19T11:13:53;37.40;28.30
69082;DHT22;56184;51.986;5.760;2022-07-19T11:16:19;37.80;28.80
69082;DHT22;56184;51.986;5.760;2022-07-19T11:18:46;38.20;30.80
69082;DHT22;56184;51.986;5.760;2022-07-19T11:21:13;38.40;28.70
69082;DHT22;56184;51.986;5.760;2022-07-19T11:23:39;39.10;26.60
69082;DHT22;56184;51.986;5.760;2022-07-19T11:26:18;39.50;27.40
69082;DHT22;56184;51.986;5.760;2022-07-19T11:28:46;39.90;28.40
69082;DHT22;56184;51.986;5.760;2022-07-19T11:31:21;40.40;26.30
69082;DHT22;56184;51.986;5.760;2022-07-19T11:33:49;40.70;29.10
69082;DHT22;56184;51.986;5.760;2022-07-19T11:36:17;40.60;28.80
69082;DHT22;56184;51.986;5.760;2022-07-19T11:38:48;41.30;26.20
69082;DHT22;56184;51.986;5.760;2022-07-19T11:41:20;42.10;27.00
69082;DHT22;56184;51.986;5.760;2022-07-19T11:43:57;41.90;27.60
69082;DHT22;56184;51.986;5.760;2022-07-19T11:46:29;42.30;28.30
69082;DHT22;56184;51.986;5.760;2022-07-19T11:49:07;42.70;25.90
69082;DHT22;56184;51.986;5.760;2022-07-19T11:51:35;43.20;26.00
69082;DHT22;56184;51.986;5.760;2022-07-19T11:54:02;43.50;28.70
69082;DHT22;56184;51.986;5.760;2022-07-19T11:56:32;43.70;29.10
69082;DHT22;56184;51.986;5.760;2022-07-19T11:59:01;44.00;26.30
69082;DHT22;56184;51.986;5.760;2022-07-19T12:01:33;44.00;23.40
69082;DHT22;56184;51.986;5.760;2022-07-19T12:04:17;44.50;26.50
69082;DHT22;56184;51.986;5.760;2022-07-19T12:06:48;45.10;26.60
69082;DHT22;56184;51.986;5.760;2022-07-19T12:09:16;45.60;23.70
69082;DHT22;56184;51.986;5.760;2022-07-19T12:11:43;46.00;26.40
69082;DHT22;56184;51.986;5.760;2022-07-19T12:16:51;46.40;22.80
69082;DHT22;56184;51.986;5.760;2022-07-19T12:19:33;46.70;26.50
69082;DHT22;56184;51.986;5.760;2022-07-19T12:21:58;47.40;25.80
69082;DHT22;56184;51.986;5.760;2022-07-19T12:24:27;47.70;24.80
69082;DHT22;56184;51.986;5.760;2022-07-19T12:26:55;47.80;24.60
69082;DHT22;56184;51.986;5.760;2022-07-19T12:29:31;48.30;24.00
69082;DHT22;56184;51.986;5.760;2022-07-19T12:32:53;48.00;25.00
69082;DHT22;56184;51.986;5.760;2022-07-19T12:35:15;48.40;23.90
69082;DHT22;56184;51.986;5.760;2022-07-19T12:37:43;48.80;24.50
69082;DHT22;56184;51.986;5.760;2022-07-19T12:40:20;49.30;22.60
69082;DHT22;56184;51.986;5.760;2022-07-19T12:45:22;50.40;24.20
69082;DHT22;56184;51.986;5.760;2022-07-19T12:47:50;50.70;21.30
69082;DHT22;56184;51.986;5.760;2022-07-19T12:52:50;50.90;23.50
69082;DHT22;56184;51.986;5.760;2022-07-19T12:55:16;50.90;23.10
69082;DHT22;56184;51.986;5.760;2022-07-19T12:57:41;51.10;22.10
69082;DHT22;56184;51.986;5.760;2022-07-19T13:00:08;50.80;20.00
69082;DHT22;56184;51.986;5.760;2022-07-19T13:02:33;51.40;23.30
69082;DHT22;56184;51.986;5.760;2022-07-19T13:04:59;51.70;20.70
69082;DHT22;56184;51.986;5.760;2022-07-19T13:07:25;52.00;21.40
69082;DHT22;56184;51.986;5.760;2022-07-19T13:09:50;52.10;18.80
69082;DHT22;56184;51.986;5.760;2022-07-19T13:12:28;51.60;19.60
69082;DHT22;56184;51.986;5.760;2022-07-19T13:14:53;52.20;21.40
69082;DHT22;56184;51.986;5.760;2022-07-19T13:17:19;52.60;19.20
69082;DHT22;56184;51.986;5.760;2022-07-19T13:19:45;52.70;21.20
69082;DHT22;56184;51.986;5.760;2022-07-19T13:22:10;52.50;20.90
69082;DHT22;56184;51.986;5.760;2022-07-19T13:24:36;53.10;19.80
69082;DHT22;56184;51.986;5.760;2022-07-19T13:27:01;52.80;18.60
69082;DHT22;56184;51.986;5.760;2022-07-19T13:29:27;53.40;20.20
69082;DHT22;56184;51.986;5.760;2022-07-19T13:31:53;53.90;18.40
69082;DHT22;56184;51.986;5.760;2022-07-19T13:34:21;54.40;21.10
69082;DHT22;56184;51.986;5.760;2022-07-19T13:36:48;54.40;18.00
69082;DHT22;56184;51.986;5.760;2022-07-19T13:39:14;54.30;19.40
69082;DHT22;56184;51.986;5.760;2022-07-19T13:41:41;54.00;20.70
69082;DHT22;56184;51.986;5.760;2022-07-19T13:44:07;54.20;19.40
69082;DHT22;56184;51.986;5.760;2022-07-19T13:46:33;54.40;18.90
69082;DHT22;56184;51.986;5.760;2022-07-19T13:48:59;54.10;20.00
69082;DHT22;56184;51.986;5.760;2022-07-19T13:51:25;53.20;19.00
69082;DHT22;56184;51.986;5.760;2022-07-19T13:53:51;53.90;19.30
69082;DHT22;56184;51.986;5.760;2022-07-19T13:56:19;54.10;18.30
69082;DHT22;56184;51.986;5.760;2022-07-19T13:58:45;54.10;20.00
69082;DHT22;56184;51.986;5.760;2022-07-19T14:01:11;54.30;17.90
69082;DHT22;56184;51.986;5.760;2022-07-19T14:03:37;54.70;18.80
69082;DHT22;56184;51.986;5.760;2022-07-19T14:06:02;55.00;19.00
69082;DHT22;56184;51.986;5.760;2022-07-19T14:08:28;54.70;17.30
69082;DHT22;56184;51.986;5.760;2022-07-19T14:10:54;54.40;17.40
69082;DHT22;56184;51.986;5.760;2022-07-19T14:13:21;54.60;17.80
69082;DHT22;56184;51.986;5.760;2022-07-19T14:15:47;54.80;19.40
69082;DHT22;56184;51.986;5.760;2022-07-19T14:18:13;55.10;18.40
69082;DHT22;56184;51.986;5.760;2022-07-19T14:20:42;54.60;19.00
69082;DHT22;56184;51.986;5.760;2022-07-19T14:23:13;54.50;17.90
69082;DHT22;56184;51.986;5.760;2022-07-19T14:25:39;54.60;18.80
69082;DHT22;56184;51.986;5.760;2022-07-19T14:28:05;55.10;17.70
69082;DHT22;56184;51.986;5.760;2022-07-19T14:30:31;54.70;18.80
69082;DHT22;56184;51.986;5.760;2022-07-19T14:32:57;54.80;17.60
69082;DHT22;56184;51.986;5.760;2022-07-19T14:35:23;55.30;18.30
69082;DHT22;56184;51.986;5.760;2022-07-19T14:37:49;55.60;17.50
69082;DHT22;56184;51.986;5.760;2022-07-19T14:40:15;55.80;17.30
69082;DHT22;56184;51.986;5.760;2022-07-19T14:42:40;56.10;17.50
69082;DHT22;56184;51.986;5.760;2022-07-19T14:45:08;56.10;16.90
69082;DHT22;56184;51.986;5.760;2022-07-19T14:47:35;56.30;17.50
69082;DHT22;56184;51.986;5.760;2022-07-19T14:50:02;56.00;17.60
69082;DHT22;56184;51.986;5.760;2022-07-19T14:52:28;55.20;16.30
69082;DHT22;56184;51.986;5.760;2022-07-19T14:54:54;55.30;17.30
69082;DHT22;56184;51.986;5.760;2022-07-19T14:57:21;55.60;17.30
69082;DHT22;56184;51.986;5.760;2022-07-19T14:59:46;55.90;16.40
69082;DHT22;56184;51.986;5.760;2022-07-19T15:02:13;55.60;16.80
69082;DHT22;56184;51.986;5.760;2022-07-19T15:04:38;55.30;16.20
69082;DHT22;56184;51.986;5.760;2022-07-19T15:07:04;55.30;16.90
69082;DHT22;56184;51.986;5.760;2022-07-19T15:09:30;55.70;17.80
69082;DHT22;56184;51.986;5.760;2022-07-19T15:11:55;55.30;15.90
69082;DHT22;56184;51.986;5.760;2022-07-19T15:14:27;55.80;17.00
69082;DHT22;56184;51.986;5.760;2022-07-19T15:17:00;56.00;17.50
69082;DHT22;56184;51.986;5.760;2022-07-19T15:19:27;55.70;16.20
69082;DHT22;56184;51.986;5.760;2022-07-19T15:21:53;55.50;16.80
69082;DHT22;56184;51.986;5.760;2022-07-19T15:24:19;54.70;16.30
69082;DHT22;56184;51.986;5.760;2022-07-19T15:26:46;55.20;17.70
69082;DHT22;56184;51.986;5.760;2022-07-19T15:29:14;55.40;16.40
69082;DHT22;56184;51.986;5.760;2022-07-19T15:31:42;55.50;16.50
69082;DHT22;56184;51.986;5.760;2022-07-19T15:34:07;55.10;15.90
69082;DHT22;56184;51.986;5.760;2022-07-19T15:36:33;55.20;14.80
69082;DHT22;56184;51.986;5.760;2022-07-19T15:38:59;55.50;15.40
69082;DHT22;56184;51.986;5.760;2022-07-19T15:41:25;55.90;15.20
69082;DHT22;56184;51.986;5.760;2022-07-19T15:43:51;54.90;14.70
69082;DHT22;56184;51.986;5.760;2022-07-19T15:46:18;54.70;15.90
69082;DHT22;56184;51.986;5.760;2022-07-19T15:48:44;54.90;15.40
69082;DHT22;56184;51.986;5.760;2022-07-19T15:51:10;54.40;15.70
69082;DHT22;56184;51.986;5.760;2022-07-19T15:53:37;54.00;14.90
69082;DHT22;56184;51.986;5.760;2022-07-19T15:56:03;54.40;15.20